Significant Other — WDB7278 — position and weather

sailwx.info

Track history (hours):
 
Tides and Currents Weather Stations Pressure Air Temp Water Temp Dewpoint Dewpoint Depression Visibility Wind Speed Wind Dir Waves Ship Positions

Significant Other

Owner: Miller, Douglas P, Port Orchard, WA. More information available from US FCC via Universal Licensing System and Coast Guard Vessel Documentation Center.

Last reported at 2014-Oct-13 00:25 UTC. Time now 2014-Oct-31 09:17 UTC.
Position N 47°33' W 122°37'.
Warning: this ship's position is 18 days out of date.

Length 13 m; draft 2 m.

Type: Sailing vessel. MMSI: 366896730.

Date/timePositionNaut miles runAvg speedWind from/ knotsBaromVisibWave heightAir tempDewpointWater temp
2014-Oct-13 00:25N 47°33' W 122°37'3 6.6
2014-Oct-13 00:01N 47°35' W 122°34'3 6.2
2014-Oct-12 23:33N 47°34' W 122°30'1 6.3
2014-Oct-12 23:26N 47°35' W 122°29'5 3.6
2014-Oct-12 22:05N 47°38' W 122°24'0 0.0
2014-Oct-12 22:05N 47°38' W 122°24'3 5.5
2014-Oct-12 21:33N 47°36' W 122°27'1 1.5
2014-Oct-12 20:43N 47°36' W 122°29'0 0.0
2014-Oct-12 20:31N 47°36' W 122°29'0 0.0
2014-Oct-12 20:28N 47°36' W 122°29'0 0.0
2014-Oct-12 19:28N 47°36' W 122°29'0 0.0
2014-Oct-12 19:13N 47°36' W 122°29'0 0.2
2014-Oct-12 18:33N 47°36' W 122°29'0 0.0
2014-Oct-12 17:33N 47°36' W 122°29'0 0.0
2014-Oct-12 16:33N 47°36' W 122°29'0 0.3
2014-Oct-12 16:32N 47°36' W 122°29'4 3.5
2014-Oct-12 15:21N 47°38' W 122°23'1 5.1
2014-Oct-12 15:07N 47°37' W 122°25'4 0.3
2014-Oct-12 02:17N 47°36' W 122°30'0 6.3
2014-Oct-12 02:14N 47°36' W 122°30'2 2.5
2014-Oct-12 01:33N 47°35' W 122°32'1 0.3
2014-Oct-11 23:28N 47°35' W 122°33'0 0.0
2014-Oct-11 23:10N 47°35' W 122°33'2 2.6
2014-Oct-11 22:33N 47°34' W 122°35'1 6.6
2014-Oct-11 22:25N 47°34' W 122°36'  
Track history (hours):
 
Tides and Currents Weather Stations Pressure Air Temp Water Temp Dewpoint Dewpoint Depression Visibility Wind Speed Wind Dir Waves Ship Positions

Significant Other

Owner: Miller, Douglas P, Port Orchard, WA. More information available from US FCC via Universal Licensing System and Coast Guard Vessel Documentation Center.

Last reported at 2014-Oct-13 00:25 UTC. Time now 2014-Oct-31 09:17 UTC.
Position N 47°33' W 122°37'.
Warning: this ship's position is 18 days out of date.

Length 13 m; draft 2 m.

Type: Sailing vessel. MMSI: 366896730.

Date/timePositionNaut miles runAvg speedWind from/ knotsBaromVisibWave heightAir tempDewpointWater temp
2014-Oct-13 00:25N 47°33' W 122°37'3 6.6
2014-Oct-13 00:01N 47°35' W 122°34'3 6.2
2014-Oct-12 23:33N 47°34' W 122°30'1 6.3
2014-Oct-12 23:26N 47°35' W 122°29'5 3.6
2014-Oct-12 22:05N 47°38' W 122°24'0 0.0
2014-Oct-12 22:05N 47°38' W 122°24'3 5.5
2014-Oct-12 21:33N 47°36' W 122°27'1 1.5
2014-Oct-12 20:43N 47°36' W 122°29'0 0.0
2014-Oct-12 20:31N 47°36' W 122°29'0 0.0
2014-Oct-12 20:28N 47°36' W 122°29'0 0.0
2014-Oct-12 19:28N 47°36' W 122°29'0 0.0
2014-Oct-12 19:13N 47°36' W 122°29'0 0.2
2014-Oct-12 18:33N 47°36' W 122°29'0 0.0
2014-Oct-12 17:33N 47°36' W 122°29'0 0.0
2014-Oct-12 16:33N 47°36' W 122°29'0 0.3
2014-Oct-12 16:32N 47°36' W 122°29'4 3.5
2014-Oct-12 15:21N 47°38' W 122°23'1 5.1
2014-Oct-12 15:07N 47°37' W 122°25'4 0.3
2014-Oct-12 02:17N 47°36' W 122°30'0 6.3
2014-Oct-12 02:14N 47°36' W 122°30'2 2.5
2014-Oct-12 01:33N 47°35' W 122°32'1 0.3
2014-Oct-11 23:28N 47°35' W 122°33'0 0.0
2014-Oct-11 23:10N 47°35' W 122°33'2 2.6
2014-Oct-11 22:33N 47°34' W 122°35'1 6.6
2014-Oct-11 22:25N 47°34' W 122°36'  

Dump ship's entire track history